THY3465 LTFM-LBWN
Flight info
| Callsign | THY3465 |
|---|---|
| Flight time | 0h 30m |
| Altitude | 22000 |
| Route | MAKOL1D/35L MAKOL T67 IVGOT |
| Aircraft | A320/M-SDE3FGHIRWY/LB1 |
Departure
| Time | 2026-05-05 21:32 |
|---|---|
| Airport | İstanbul Airport (LTFM) |
Arrival
| Time | 2026-05-05 22:02 |
|---|---|
| Airport | Varna Airport (LBWN) |
| Time | Latitude | Longitude | Altitude | Speed | Heading |
|---|---|---|---|---|---|
| 2026-05-05 20:46 | 41.26548 | 28.73514 | 177 ft | 0 kts | 70° |
| 2026-05-05 21:18 | 41.26547 | 28.73512 | 176 ft | 2 kts | 70° |
| 2026-05-05 21:18 | 41.26540 | 28.73481 | 176 ft | 4 kts | 77° |
| 2026-05-05 21:19 | 41.26536 | 28.73446 | 176 ft | 3 kts | 84° |
| 2026-05-05 21:19 | 41.26535 | 28.73442 | 176 ft | 0 kts | 84° |
| 2026-05-05 21:22 | 41.26534 | 28.73421 | 176 ft | 2 kts | 84° |
| 2026-05-05 21:22 | 41.26532 | 28.73399 | 176 ft | 2 kts | 84° |
| 2026-05-05 21:22 | 41.26535 | 28.73379 | 176 ft | 2 kts | 152° |
| 2026-05-05 21:23 | 41.26531 | 28.73381 | 176 ft | 2 kts | 156° |
| 2026-05-05 21:23 | 41.26528 | 28.73382 | 176 ft | 0 kts | 156° |
| 2026-05-05 21:24 | 41.26505 | 28.73391 | 176 ft | 7 kts | 164° |
| 2026-05-05 21:25 | 41.26447 | 28.73415 | 176 ft | 10 kts | 161° |
| 2026-05-05 21:25 | 41.26369 | 28.73450 | 176 ft | 13 kts | 161° |
| 2026-05-05 21:25 | 41.26273 | 28.73493 | 176 ft | 15 kts | 165° |
| 2026-05-05 21:25 | 41.26211 | 28.73405 | 176 ft | 16 kts | 266° |
| 2026-05-05 21:26 | 41.26208 | 28.73243 | 176 ft | 19 kts | 268° |
| 2026-05-05 21:26 | 41.26206 | 28.73062 | 176 ft | 21 kts | 269° |
| 2026-05-05 21:26 | 41.26206 | 28.72962 | 176 ft | 0 kts | 269° |
| 2026-05-05 21:29 | 41.26205 | 28.72956 | 176 ft | 3 kts | 269° |
| 2026-05-05 21:29 | 41.26205 | 28.72896 | 176 ft | 11 kts | 269° |
| 2026-05-05 21:29 | 41.26204 | 28.72751 | 175 ft | 20 kts | 269° |
| 2026-05-05 21:29 | 41.26203 | 28.72677 | 174 ft | 0 kts | 269° |
| 2026-05-05 21:30 | 41.26203 | 28.72669 | 174 ft | 5 kts | 269° |
| 2026-05-05 21:30 | 41.26204 | 28.72574 | 174 ft | 14 kts | 280° |
| 2026-05-05 21:30 | 41.26269 | 28.72523 | 175 ft | 0 kts | 358° |
| 2026-05-05 21:31 | 41.26272 | 28.72523 | 175 ft | 3 kts | 358° |
| 2026-05-05 21:31 | 41.26473 | 28.72520 | 178 ft | 64 kts | 359° |
| 2026-05-05 21:31 | 41.27137 | 28.72507 | 174 ft | 124 kts | 359° |
| 2026-05-05 21:31 | 41.28150 | 28.72487 | 220 ft | 164 kts | 0° |
| 2026-05-05 21:32 | 41.29293 | 28.72427 | 806 ft | 165 kts | 359° |
| 2026-05-05 21:32 | 41.30442 | 28.72400 | 1526 ft | 164 kts | 360° |
| 2026-05-05 21:32 | 41.31590 | 28.72414 | 2176 ft | 170 kts | 1° |
| 2026-05-05 21:32 | 41.32843 | 28.72438 | 2457 ft | 191 kts | 1° |
| 2026-05-05 21:33 | 41.34250 | 28.72465 | 2710 ft | 215 kts | 1° |
| 2026-05-05 21:33 | 41.35834 | 28.72494 | 3118 ft | 238 kts | 1° |
| 2026-05-05 21:33 | 41.37519 | 28.72508 | 3959 ft | 244 kts | 359° |
| 2026-05-05 21:33 | 41.39183 | 28.71968 | 4706 ft | 250 kts | 339° |
| 2026-05-05 21:34 | 41.40231 | 28.71337 | 4887 ft | 248 kts | 338° |
| 2026-05-05 21:34 | 41.41783 | 28.70347 | 4985 ft | 246 kts | 337° |
| 2026-05-05 21:34 | 41.43321 | 28.69344 | 5008 ft | 246 kts | 337° |
| 2026-05-05 21:34 | 41.44856 | 28.68342 | 5012 ft | 245 kts | 337° |
| 2026-05-05 21:35 | 41.46389 | 28.67350 | 5011 ft | 245 kts | 337° |
| 2026-05-05 21:35 | 41.47929 | 28.66359 | 5010 ft | 245 kts | 337° |
| 2026-05-05 21:35 | 41.49470 | 28.65367 | 5013 ft | 246 kts | 337° |
| 2026-05-05 21:35 | 41.51009 | 28.64376 | 5014 ft | 246 kts | 337° |
| 2026-05-05 21:36 | 41.52555 | 28.63382 | 5143 ft | 250 kts | 337° |
| 2026-05-05 21:36 | 41.54150 | 28.62464 | 6088 ft | 248 kts | 346° |
| 2026-05-05 21:36 | 41.55856 | 28.62185 | 7007 ft | 249 kts | 3° |
| 2026-05-05 21:36 | 41.57534 | 28.62654 | 7832 ft | 253 kts | 20° |
| 2026-05-05 21:37 | 41.59062 | 28.63875 | 8644 ft | 262 kts | 38° |
| 2026-05-05 21:37 | 41.60242 | 28.65774 | 9464 ft | 271 kts | 53° |
| 2026-05-05 21:37 | 41.61262 | 28.67919 | 10239 ft | 277 kts | 53° |
| 2026-05-05 21:37 | 41.62344 | 28.70173 | 10497 ft | 300 kts | 53° |
| 2026-05-05 21:38 | 41.63522 | 28.72616 | 10719 ft | 321 kts | 54° |
| 2026-05-05 21:38 | 41.64752 | 28.75171 | 11255 ft | 330 kts | 54° |
| 2026-05-05 21:38 | 41.65999 | 28.77772 | 11942 ft | 333 kts | 54° |
| 2026-05-05 21:38 | 41.67256 | 28.80396 | 12646 ft | 336 kts | 54° |
| 2026-05-05 21:39 | 41.68522 | 28.83039 | 13348 ft | 339 kts | 54° |
| 2026-05-05 21:39 | 41.69801 | 28.85711 | 13894 ft | 342 kts | 54° |
| 2026-05-05 21:39 | 41.71086 | 28.88397 | 14063 ft | 343 kts | 54° |
| 2026-05-05 21:39 | 41.72500 | 28.90950 | 14088 ft | 340 kts | 45° |
| 2026-05-05 21:40 | 41.74275 | 28.93028 | 14095 ft | 339 kts | 33° |
| 2026-05-05 21:40 | 41.76333 | 28.94511 | 14611 ft | 341 kts | 21° |
| 2026-05-05 21:40 | 41.78576 | 28.95608 | 15225 ft | 344 kts | 19° |
| 2026-05-05 21:40 | 41.80839 | 28.96701 | 15799 ft | 348 kts | 19° |
| 2026-05-05 21:41 | 41.83127 | 28.97810 | 16353 ft | 351 kts | 19° |
| 2026-05-05 21:41 | 41.85443 | 28.98934 | 16910 ft | 355 kts | 19° |
| 2026-05-05 21:41 | 41.87786 | 29.00073 | 17463 ft | 360 kts | 19° |
| 2026-05-05 21:41 | 41.90155 | 29.01222 | 18021 ft | 364 kts | 19° |
| 2026-05-05 21:42 | 41.92567 | 29.02389 | 18296 ft | 376 kts | 19° |
| 2026-05-05 21:42 | 41.95077 | 29.03600 | 18430 ft | 391 kts | 19° |
| 2026-05-05 21:42 | 41.97677 | 29.04858 | 18642 ft | 401 kts | 19° |
| 2026-05-05 21:42 | 42.00284 | 29.06124 | 19042 ft | 406 kts | 19° |
| 2026-05-05 21:43 | 42.02954 | 29.07424 | 19507 ft | 409 kts | 19° |
| 2026-05-05 21:43 | 42.05648 | 29.08732 | 19981 ft | 412 kts | 19° |
| 2026-05-05 21:43 | 42.08359 | 29.10047 | 20414 ft | 417 kts | 19° |
| 2026-05-05 21:43 | 42.11126 | 29.11389 | 20545 ft | 427 kts | 19° |
| 2026-05-05 21:44 | 42.14005 | 29.12520 | 20668 ft | 436 kts | 10° |
| 2026-05-05 21:44 | 42.17059 | 29.12776 | 20888 ft | 442 kts | 356° |
| 2026-05-05 21:44 | 42.20092 | 29.12071 | 21199 ft | 446 kts | 344° |
| 2026-05-05 21:44 | 42.22978 | 29.10497 | 21527 ft | 449 kts | 335° |
| 2026-05-05 21:45 | 42.25815 | 29.08695 | 21869 ft | 451 kts | 335° |
| 2026-05-05 21:45 | 42.28626 | 29.06900 | 22056 ft | 453 kts | 335° |
| 2026-05-05 21:45 | 42.31465 | 29.05079 | 22093 ft | 452 kts | 335° |
| 2026-05-05 21:45 | 42.34349 | 29.03223 | 22090 ft | 453 kts | 335° |
| 2026-05-05 21:46 | 42.37201 | 29.01382 | 22092 ft | 454 kts | 335° |
| 2026-05-05 21:46 | 42.40013 | 28.99575 | 22089 ft | 454 kts | 335° |
| 2026-05-05 21:46 | 42.42866 | 28.97748 | 22090 ft | 454 kts | 335° |
| 2026-05-05 21:46 | 42.45717 | 28.95910 | 22096 ft | 454 kts | 335° |
| 2026-05-05 21:47 | 42.48574 | 28.94062 | 21916 ft | 455 kts | 335° |
| 2026-05-05 21:47 | 42.51416 | 28.92227 | 21617 ft | 451 kts | 335° |
| 2026-05-05 21:47 | 42.54245 | 28.90402 | 21359 ft | 450 kts | 335° |
| 2026-05-05 21:47 | 42.57061 | 28.88582 | 21107 ft | 440 kts | 335° |
| 2026-05-05 21:48 | 42.59760 | 28.86828 | 20854 ft | 422 kts | 335° |
| 2026-05-05 21:48 | 42.62361 | 28.85136 | 20603 ft | 406 kts | 335° |
| 2026-05-05 21:48 | 42.64870 | 28.83504 | 20355 ft | 393 kts | 335° |
| 2026-05-05 21:48 | 42.67304 | 28.81922 | 20108 ft | 382 kts | 335° |
| 2026-05-05 21:49 | 42.69679 | 28.80384 | 19854 ft | 374 kts | 335° |
| 2026-05-05 21:49 | 42.72010 | 28.78872 | 19431 ft | 369 kts | 335° |
| 2026-05-05 21:49 | 42.74321 | 28.77369 | 18832 ft | 368 kts | 335° |
| 2026-05-05 21:49 | 42.76669 | 28.75837 | 17800 ft | 380 kts | 335° |
| 2026-05-05 21:50 | 42.79059 | 28.74275 | 17254 ft | 386 kts | 336° |
| 2026-05-05 21:50 | 42.81465 | 28.72705 | 16737 ft | 390 kts | 336° |
| 2026-05-05 21:50 | 42.83913 | 28.71106 | 16226 ft | 388 kts | 336° |
| 2026-05-05 21:50 | 42.86337 | 28.69522 | 15713 ft | 386 kts | 336° |
| 2026-05-05 21:51 | 42.88756 | 28.67941 | 15214 ft | 384 kts | 336° |
| 2026-05-05 21:51 | 42.91224 | 28.66328 | 14724 ft | 398 kts | 336° |
| 2026-05-05 21:51 | 42.93729 | 28.64687 | 14243 ft | 399 kts | 336° |
| 2026-05-05 21:51 | 42.96233 | 28.63042 | 13753 ft | 397 kts | 336° |
| 2026-05-05 21:52 | 43.01162 | 28.59794 | 12684 ft | 386 kts | 336° |
| 2026-05-05 21:52 | 43.03548 | 28.58219 | 12158 ft | 377 kts | 336° |
| 2026-05-05 21:52 | 43.05881 | 28.56682 | 11656 ft | 367 kts | 336° |
| 2026-05-05 21:53 | 43.08155 | 28.55184 | 11163 ft | 360 kts | 336° |
| 2026-05-05 21:53 | 43.10274 | 28.53406 | 10664 ft | 351 kts | 325° |
| 2026-05-05 21:53 | 43.11975 | 28.51248 | 10096 ft | 327 kts | 314° |
| 2026-05-05 21:53 | 43.13322 | 28.48894 | 9530 ft | 302 kts | 311° |
| 2026-05-05 21:54 | 43.14573 | 28.46719 | 8987 ft | 281 kts | 314° |
| 2026-05-05 21:54 | 43.15814 | 28.44689 | 8656 ft | 275 kts | 314° |
| 2026-05-05 21:54 | 43.16926 | 28.42554 | 8441 ft | 276 kts | 304° |
| 2026-05-05 21:54 | 43.17723 | 28.40146 | 8095 ft | 280 kts | 293° |
| 2026-05-05 21:55 | 43.18181 | 28.37536 | 7737 ft | 284 kts | 283° |
| 2026-05-05 21:55 | 43.18417 | 28.34847 | 7412 ft | 284 kts | 281° |
| 2026-05-05 21:55 | 43.18659 | 28.32174 | 7092 ft | 283 kts | 282° |
| 2026-05-05 21:55 | 43.18902 | 28.29541 | 6813 ft | 272 kts | 282° |
| 2026-05-05 21:56 | 43.19137 | 28.27007 | 6433 ft | 265 kts | 282° |
| 2026-05-05 21:56 | 43.19370 | 28.24533 | 6025 ft | 258 kts | 282° |
| 2026-05-05 21:56 | 43.19601 | 28.22076 | 5417 ft | 261 kts | 281° |
| 2026-05-05 21:56 | 43.19835 | 28.19606 | 4586 ft | 269 kts | 280° |
| 2026-05-05 21:57 | 43.20085 | 28.17008 | 3605 ft | 276 kts | 279° |
| 2026-05-05 21:57 | 43.20331 | 28.14475 | 3167 ft | 256 kts | 279° |
| 2026-05-05 21:57 | 43.20540 | 28.12154 | 3397 ft | 235 kts | 279° |
| 2026-05-05 21:57 | 43.20723 | 28.10019 | 3466 ft | 217 kts | 279° |
| 2026-05-05 21:58 | 43.20886 | 28.08043 | 3475 ft | 201 kts | 279° |
| 2026-05-05 21:58 | 43.21032 | 28.06199 | 3429 ft | 189 kts | 279° |
| 2026-05-05 21:58 | 43.21185 | 28.04445 | 3295 ft | 183 kts | 281° |
| 2026-05-05 21:58 | 43.21347 | 28.02704 | 3014 ft | 186 kts | 279° |
| 2026-05-05 21:59 | 43.21515 | 28.00999 | 2839 ft | 175 kts | 279° |
| 2026-05-05 21:59 | 43.21680 | 27.99404 | 2630 ft | 165 kts | 278° |
| 2026-05-05 21:59 | 43.21834 | 27.97844 | 2186 ft | 165 kts | 276° |
| 2026-05-05 21:59 | 43.21966 | 27.96349 | 2074 ft | 152 kts | 275° |
| 2026-05-05 22:00 | 43.22083 | 27.94926 | 1925 ft | 148 kts | 275° |
| 2026-05-05 22:00 | 43.22203 | 27.93539 | 1729 ft | 145 kts | 275° |
| 2026-05-05 22:00 | 43.22328 | 27.92170 | 1516 ft | 144 kts | 276° |
| 2026-05-05 22:00 | 43.22451 | 27.90807 | 1275 ft | 143 kts | 277° |
| 2026-05-05 22:01 | 43.22567 | 27.89464 | 1122 ft | 142 kts | 279° |
| 2026-05-05 22:01 | 43.22703 | 27.88130 | 912 ft | 140 kts | 277° |
| 2026-05-05 22:01 | 43.22805 | 27.86806 | 700 ft | 139 kts | 278° |
| 2026-05-05 22:01 | 43.22931 | 27.85494 | 481 ft | 138 kts | 278° |
| 2026-05-05 22:02 | 43.23047 | 27.84186 | 283 ft | 138 kts | 278° |
| 2026-05-05 22:02 | 43.23157 | 27.82975 | 233 ft | 106 kts | 277° |
| 2026-05-05 22:02 | 43.23209 | 27.82379 | 229 ft | 31 kts | 276° |
| 2026-05-05 22:02 | 43.23235 | 27.82080 | 229 ft | 32 kts | 277° |
| 2026-05-05 22:03 | 43.23276 | 27.81784 | 228 ft | 29 kts | 301° |
| 2026-05-05 22:03 | 43.23396 | 27.81635 | 226 ft | 19 kts | 331° |
| 2026-05-05 22:03 | 43.23508 | 27.81697 | 226 ft | 20 kts | 65° |
| 2026-05-05 22:03 | 43.23502 | 27.81884 | 227 ft | 21 kts | 97° |
| 2026-05-05 22:04 | 43.23485 | 27.82086 | 228 ft | 22 kts | 96° |
| 2026-05-05 22:04 | 43.23481 | 27.82300 | 229 ft | 22 kts | 89° |
| 2026-05-05 22:04 | 43.23461 | 27.82513 | 230 ft | 23 kts | 97° |
| 2026-05-05 22:04 | 43.23448 | 27.82672 | 230 ft | 9 kts | 98° |
| 2026-05-05 22:05 | 43.23443 | 27.82771 | 231 ft | 11 kts | 81° |
| 2026-05-05 22:05 | 43.23482 | 27.82874 | 231 ft | 14 kts | 41° |
| 2026-05-05 22:05 | 43.23556 | 27.82852 | 231 ft | 13 kts | 279° |
| 2026-05-05 22:05 | 43.23516 | 27.82809 | 231 ft | 8 kts | 158° |
| 2026-05-05 22:06 | 43.23486 | 27.82799 | 231 ft | 0 kts | 219° |